Time;durP1;ratioP1;P1;durP2;ratioP2;P2;SDS_P1;SDS_P2;PMS_P1;PMS_P2;Temp;Humidity;BMP_temperature;BMP_pressure;BME280_temperature;BME280_humidity;BME280_pressure;Samples;Min_cycle;Max_cycle;Signal;HPM_P1;HPM_P2
2023/08/06 00:00:48;;;;;;;5.00;4.47;;;;;;;;;;5043372;28;20848;-77
2023/08/06 00:03:14;;;;;;;4.17;4.07;;;;;;;;;;5043148;28;20469;-77
2023/08/06 00:05:43;;;;;;;3.83;3.73;;;;;;;;;;5037426;28;20456;-77
2023/08/06 00:08:09;;;;;;;4.43;4.03;;;;;;;;;;5043401;28;20475;-76
2023/08/06 00:10:35;;;;;;;3.43;3.43;;;;;;;;;;5041793;28;20466;-76
2023/08/06 00:13:04;;;;;;;3.00;2.93;;;;;;;;;;5038154;28;20426;-77
2023/08/06 00:15:33;;;;;;;3.37;3.27;;;;;;;;;;5040335;28;20642;-77
2023/08/06 00:17:59;;;;;;;4.37;4.27;;;;;;;;;;5039264;28;20969;-77
2023/08/06 00:20:25;;;;;;;3.93;3.83;;;;;;;;;;5038793;28;20460;-77
2023/08/06 00:22:51;;;;;;;4.20;4.00;;;;;;;;;;5042026;28;21265;-77
2023/08/06 00:25:17;;;;;;;4.30;4.00;;;;;;;;;;5040232;28;20445;-77
2023/08/06 00:27:42;;;;;;;3.63;3.57;;;;;;;;;;5037798;28;21252;-77
2023/08/06 00:30:09;;;;;;;3.83;3.63;;;;;;;;;;5039923;28;20437;-76
2023/08/06 00:32:35;;;;;;;4.50;4.20;;;;;;;;;;5029340;28;20422;-76
2023/08/06 00:35:01;;;;;;;3.60;3.50;;;;;;;;;;5024781;28;20457;-77
2023/08/06 00:37:26;;;;;;;3.70;3.60;;;;;;;;;;5043211;28;20453;-77
2023/08/06 00:39:52;;;;;;;4.50;4.10;;;;;;;;;;5043062;28;20536;-77
2023/08/06 00:42:20;;;;;;;4.20;3.90;;;;;;;;;;5033951;28;21189;-76
2023/08/06 00:44:46;;;;;;;4.50;4.30;;;;;;;;;;5040941;28;20535;-78
2023/08/06 00:47:12;;;;;;;4.10;3.63;;;;;;;;;;5039918;28;20426;-78
2023/08/06 00:49:39;;;;;;;4.00;3.77;;;;;;;;;;5041537;28;20460;-78
2023/08/06 00:52:06;;;;;;;4.00;3.80;;;;;;;;;;5038922;28;20445;-77
2023/08/06 00:54:32;;;;;;;3.90;3.70;;;;;;;;;;5040031;28;20969;-76
2023/08/06 01:00:26;;;;;;;3.87;3.83;;;;;;;;;;5035339;28;20443;-78
2023/08/06 01:02:52;;;;;;;4.57;4.20;;;;;;;;;;5046118;28;20465;-77
2023/08/06 01:05:19;;;;;;;4.50;4.10;;;;;;;;;;5038811;28;20445;-77
2023/08/06 01:14:01;;;;;;;5.17;4.57;;;;;;;;;;5049218;28;20495;-76
2023/08/06 01:16:27;;;;;;;4.97;4.77;;;;;;;;;;5037346;28;20450;-77
2023/08/06 01:18:53;;;;;;;5.00;4.60;;;;;;;;;;5037549;28;20428;-77
2023/08/06 01:21:19;;;;;;;5.07;4.97;;;;;;;;;;5044377;28;20425;-77
2023/08/06 01:23:46;;;;;;;5.00;4.90;;;;;;;;;;5046059;28;21248;-77
2023/08/06 01:26:19;;;;;;;5.50;4.97;;;;;;;;;;5028663;28;20974;-77
2023/08/06 01:28:54;;;;;;;5.73;5.43;;;;;;;;;;5043752;28;20433;-78
2023/08/06 01:31:27;;;;;;;5.17;4.87;;;;;;;;;;5047839;28;20439;-77
2023/08/06 01:33:54;;;;;;;4.93;4.83;;;;;;;;;;5029654;28;20441;-77
2023/08/06 01:36:21;;;;;;;5.77;4.30;;;;;;;;;;5042831;28;20437;-78
2023/08/06 01:38:47;;;;;;;4.40;4.40;;;;;;;;;;5028335;28;20520;-77
2023/08/06 01:41:13;;;;;;;4.13;3.93;;;;;;;;;;5040104;28;20453;-76
2023/08/06 01:43:39;;;;;;;3.53;3.40;;;;;;;;;;5046692;28;20552;-77
2023/08/06 01:46:05;;;;;;;4.20;4.10;;;;;;;;;;5044679;28;20438;-78
2023/08/06 01:48:34;;;;;;;4.00;3.80;;;;;;;;;;5042662;28;20914;-77
2023/08/06 01:51:00;;;;;;;3.93;3.87;;;;;;;;;;5045110;28;20473;-76
2023/08/06 01:53:26;;;;;;;3.67;3.57;;;;;;;;;;5045982;28;20944;-76
2023/08/06 01:55:52;;;;;;;4.63;4.33;;;;;;;;;;5041392;28;20441;-77
2023/08/06 01:58:18;;;;;;;3.30;3.10;;;;;;;;;;5046351;28;20414;-77
2023/08/06 02:00:44;;;;;;;3.50;3.40;;;;;;;;;;5027287;28;20456;-77
2023/08/06 02:03:10;;;;;;;3.73;3.60;;;;;;;;;;5046089;28;21357;-78
2023/08/06 02:05:36;;;;;;;3.97;3.27;;;;;;;;;;5022251;28;20855;-77
2023/08/06 02:08:02;;;;;;;3.43;3.23;;;;;;;;;;5045914;28;20483;-77
2023/08/06 02:10:28;;;;;;;6.20;3.90;;;;;;;;;;5043568;28;20433;-78
2023/08/06 02:12:54;;;;;;;3.40;3.37;;;;;;;;;;5044885;28;20454;-78
2023/08/06 02:15:20;;;;;;;4.00;3.80;;;;;;;;;;5043588;28;20452;-77
2023/08/06 02:20:59;;;;;;;3.67;3.57;;;;;;;;;;5036403;28;20486;-77
2023/08/06 02:23:26;;;;;;;3.37;3.30;;;;;;;;;;5043435;28;20870;-77
2023/08/06 02:26:04;;;;;;;3.90;3.70;;;;;;;;;;5035972;28;20529;-77
2023/08/06 02:28:31;;;;;;;3.93;3.77;;;;;;;;;;5045229;28;20425;-78
2023/08/06 02:30:57;;;;;;;3.77;3.67;;;;;;;;;;5043688;28;20434;-76
2023/08/06 02:33:23;;;;;;;3.63;3.53;;;;;;;;;;5044942;28;20429;-76
2023/08/06 02:35:49;;;;;;;3.50;3.50;;;;;;;;;;5041652;28;20928;-77
2023/08/06 02:38:15;;;;;;;3.40;3.30;;;;;;;;;;5041937;28;20421;-76
2023/08/06 02:40:50;;;;;;;3.60;3.50;;;;;;;;;;5043072;28;20421;-77
2023/08/06 02:43:16;;;;;;;3.50;3.50;;;;;;;;;;5044271;28;20464;-78
2023/08/06 02:45:44;;;;;;;5.33;3.93;;;;;;;;;;5039248;28;20441;-77
2023/08/06 02:48:10;;;;;;;3.87;3.67;;;;;;;;;;5044466;28;20448;-77
2023/08/06 02:50:49;;;;;;;4.47;4.27;;;;;;;;;;5025439;28;20984;-78
2023/08/06 02:53:15;;;;;;;3.90;3.80;;;;;;;;;;5044445;28;20420;-77
2023/08/06 02:55:46;;;;;;;4.13;3.83;;;;;;;;;;5036980;28;20851;-77
2023/08/06 02:58:12;;;;;;;4.27;4.07;;;;;;;;;;5029973;28;20414;-77
2023/08/06 03:00:38;;;;;;;3.87;3.77;;;;;;;;;;5041909;28;20426;-77
2023/08/06 03:03:04;;;;;;;3.80;3.60;;;;;;;;;;5039419;28;20465;-77
2023/08/06 03:05:30;;;;;;;4.07;3.97;;;;;;;;;;5042221;28;20440;-78
2023/08/06 03:07:56;;;;;;;4.50;4.20;;;;;;;;;;5046300;28;20418;-76
2023/08/06 03:10:22;;;;;;;3.97;3.80;;;;;;;;;;5044996;28;20826;-77
2023/08/06 03:19:21;;;;;;;3.97;3.77;;;;;;;;;;5040604;28;20464;-78
2023/08/06 03:24:51;;;;;;;3.60;3.30;;;;;;;;;;5035592;28;20424;-76
2023/08/06 03:30:24;;;;;;;3.43;3.43;;;;;;;;;;5036746;28;20535;-77
2023/08/06 03:32:50;;;;;;;3.60;3.50;;;;;;;;;;5043941;28;20433;-77
2023/08/06 03:35:19;;;;;;;4.87;3.57;;;;;;;;;;5039117;28;20465;-77
2023/08/06 03:37:45;;;;;;;3.63;3.43;;;;;;;;;;5043862;28;20425;-77
2023/08/06 03:40:11;;;;;;;3.57;3.37;;;;;;;;;;5033866;28;20422;-76
2023/08/06 03:42:37;;;;;;;3.50;3.33;;;;;;;;;;5038360;28;20464;-76
2023/08/06 03:45:06;;;;;;;3.77;3.67;;;;;;;;;;5042214;28;20464;-77
2023/08/06 03:47:33;;;;;;;3.67;3.47;;;;;;;;;;5036212;28;20596;-78
2023/08/06 03:49:59;;;;;;;3.80;3.70;;;;;;;;;;5021640;28;20482;-77
2023/08/06 03:52:30;;;;;;;3.67;3.50;;;;;;;;;;5025392;28;20914;-78
2023/08/06 03:54:56;;;;;;;2.90;2.90;;;;;;;;;;5040286;28;21199;-78
2023/08/06 03:57:22;;;;;;;2.70;2.60;;;;;;;;;;5043143;28;20429;-77
2023/08/06 03:59:48;;;;;;;3.30;3.13;;;;;;;;;;5042604;28;20468;-78
2023/08/06 04:02:14;;;;;;;3.97;3.87;;;;;;;;;;5042564;28;20500;-77
2023/08/06 04:04:40;;;;;;;3.03;2.93;;;;;;;;;;5041800;28;20461;-77
2023/08/06 04:07:06;;;;;;;3.30;3.20;;;;;;;;;;5024694;28;20441;-77
2023/08/06 04:09:32;;;;;;;3.50;3.40;;;;;;;;;;5039711;28;20437;-78
2023/08/06 04:12:00;;;;;;;2.90;2.90;;;;;;;;;;5041872;28;20521;-77
2023/08/06 04:14:29;;;;;;;3.73;3.63;;;;;;;;;;5041177;28;20437;-77
2023/08/06 04:16:55;;;;;;;3.50;3.40;;;;;;;;;;5042741;28;20433;-77
2023/08/06 04:19:21;;;;;;;3.20;3.20;;;;;;;;;;5041232;28;20464;-76
2023/08/06 04:21:47;;;;;;;2.50;2.40;;;;;;;;;;5043043;28;20465;-76
2023/08/06 04:24:13;;;;;;;3.10;2.50;;;;;;;;;;5033643;28;20463;-77
2023/08/06 04:26:39;;;;;;;3.03;2.93;;;;;;;;;;5042958;28;20839;-77
2023/08/06 04:29:05;;;;;;;3.20;3.00;;;;;;;;;;5023049;28;20434;-77
2023/08/06 04:31:31;;;;;;;3.57;3.47;;;;;;;;;;5042768;28;20515;-78
2023/08/06 04:33:56;;;;;;;2.83;2.83;;;;;;;;;;5042028;28;20832;-77
2023/08/06 04:36:22;;;;;;;2.87;2.70;;;;;;;;;;5041132;28;20441;-77
2023/08/06 04:38:48;;;;;;;3.37;3.27;;;;;;;;;;5045665;28;21051;-77
2023/08/06 04:41:14;;;;;;;2.70;2.60;;;;;;;;;;5047144;28;20421;-78
2023/08/06 04:43:40;;;;;;;3.77;3.50;;;;;;;;;;5045111;28;20484;-77
2023/08/06 04:46:06;;;;;;;3.07;2.90;;;;;;;;;;5045026;28;20499;-76
2023/08/06 04:48:32;;;;;;;3.03;2.93;;;;;;;;;;5043331;28;20482;-77
2023/08/06 04:50:58;;;;;;;3.23;3.03;;;;;;;;;;5046151;28;21182;-77
2023/08/06 04:53:24;;;;;;;3.00;2.90;;;;;;;;;;5045519;28;20425;-77
2023/08/06 04:55:50;;;;;;;2.67;2.47;;;;;;;;;;5046248;28;20986;-77
2023/08/06 04:58:16;;;;;;;3.13;2.63;;;;;;;;;;5045355;28;20448;-77
2023/08/06 05:00:42;;;;;;;2.90;2.80;;;;;;;;;;5046050;28;20912;-77
2023/08/06 05:03:08;;;;;;;3.67;3.43;;;;;;;;;;5045099;28;20468;-77
2023/08/06 05:05:34;;;;;;;4.57;4.37;;;;;;;;;;5046109;28;20429;-78
2023/08/06 05:08:00;;;;;;;3.33;3.13;;;;;;;;;;5025916;28;20473;-76
2023/08/06 05:10:26;;;;;;;3.50;3.40;;;;;;;;;;5046938;28;21113;-77
2023/08/06 05:12:52;;;;;;;3.13;3.00;;;;;;;;;;5043459;28;20459;-77
2023/08/06 05:15:18;;;;;;;3.20;3.10;;;;;;;;;;5046075;28;20417;-77
2023/08/06 05:17:44;;;;;;;2.83;2.57;;;;;;;;;;5038103;28;20492;-77
2023/08/06 05:20:11;;;;;;;2.33;2.33;;;;;;;;;;5045206;28;20421;-76
2023/08/06 05:22:37;;;;;;;3.00;2.90;;;;;;;;;;5026877;28;20497;-76
2023/08/06 05:25:03;;;;;;;3.03;2.93;;;;;;;;;;5046019;28;20770;-77
2023/08/06 05:27:29;;;;;;;2.57;2.47;;;;;;;;;;5043546;28;20761;-75
2023/08/06 05:29:56;;;;;;;2.83;2.83;;;;;;;;;;5027941;28;20516;-76
2023/08/06 05:32:22;;;;;;;2.73;2.63;;;;;;;;;;5043913;28;20547;-76
2023/08/06 05:34:48;;;;;;;2.83;2.63;;;;;;;;;;5044760;28;20430;-75
2023/08/06 05:37:14;;;;;;;2.30;2.30;;;;;;;;;;5040230;28;20457;-76
2023/08/06 05:39:40;;;;;;;3.13;2.93;;;;;;;;;;5045963;28;20428;-76
2023/08/06 05:42:07;;;;;;;3.37;3.37;;;;;;;;;;5042059;28;20535;-76
2023/08/06 05:44:33;;;;;;;2.70;2.60;;;;;;;;;;5044194;28;21234;-77
2023/08/06 05:46:59;;;;;;;2.90;2.80;;;;;;;;;;5039418;28;20441;-77
2023/08/06 05:49:25;;;;;;;2.87;2.70;;;;;;;;;;5026524;28;20449;-77
2023/08/06 05:51:53;;;;;;;2.73;2.63;;;;;;;;;;5040601;28;20524;-76
2023/08/06 05:54:19;;;;;;;3.27;2.97;;;;;;;;;;5041690;28;20425;-76
2023/08/06 05:56:45;;;;;;;2.87;2.70;;;;;;;;;;5040254;28;20494;-77
2023/08/06 05:59:11;;;;;;;2.60;2.60;;;;;;;;;;5043670;28;20418;-76
2023/08/06 06:01:37;;;;;;;3.10;3.00;;;;;;;;;;5040377;28;20493;-76
2023/08/06 06:04:03;;;;;;;2.10;2.10;;;;;;;;;;5044783;28;20513;-76
2023/08/06 06:06:29;;;;;;;3.10;2.90;;;;;;;;;;5042365;28;20442;-77
2023/08/06 06:08:55;;;;;;;2.60;2.60;;;;;;;;;;5041868;28;20497;-77
2023/08/06 06:11:22;;;;;;;2.50;2.50;;;;;;;;;;5043996;28;20482;-77
2023/08/06 06:13:49;;;;;;;2.83;2.73;;;;;;;;;;5036943;28;20882;-77
2023/08/06 06:16:15;;;;;;;2.70;2.60;;;;;;;;;;5041136;28;20434;-77
2023/08/06 06:18:41;;;;;;;3.47;3.03;;;;;;;;;;5038756;28;20466;-78
2023/08/06 06:21:07;;;;;;;6.20;2.80;;;;;;;;;;5039679;28;20542;-78
2023/08/06 06:23:33;;;;;;;2.70;2.60;;;;;;;;;;5039503;28;20460;-77
2023/08/06 06:26:00;;;;;;;2.87;2.67;;;;;;;;;;5039741;28;20413;-78
2023/08/06 06:28:26;;;;;;;2.43;2.33;;;;;;;;;;5043596;28;20524;-78
2023/08/06 06:30:52;;;;;;;3.63;2.40;;;;;;;;;;5043485;28;20544;-76
2023/08/06 06:33:18;;;;;;;2.37;2.37;;;;;;;;;;5042447;28;20449;-76
2023/08/06 06:35:44;;;;;;;4.63;2.33;;;;;;;;;;5043777;28;20438;-75
2023/08/06 06:38:10;;;;;;;2.50;2.37;;;;;;;;;;5022475;28;20556;-77
2023/08/06 06:40:36;;;;;;;3.13;1.93;;;;;;;;;;5023318;28;20442;-77
2023/08/06 06:43:02;;;;;;;2.37;2.27;;;;;;;;;;5040547;28;20565;-76
2023/08/06 06:45:28;;;;;;;2.30;2.30;;;;;;;;;;5043484;28;21230;-77
2023/08/06 06:47:54;;;;;;;3.63;3.20;;;;;;;;;;5041023;28;20461;-77
2023/08/06 06:50:20;;;;;;;2.50;2.40;;;;;;;;;;5043467;28;20461;-77
2023/08/06 06:52:46;;;;;;;2.07;2.07;;;;;;;;;;5040920;28;20578;-77
2023/08/06 06:55:12;;;;;;;4.33;2.60;;;;;;;;;;5042028;28;20925;-78
2023/08/06 06:57:38;;;;;;;3.23;3.13;;;;;;;;;;5040697;28;20946;-77
2023/08/06 07:00:04;;;;;;;2.57;2.43;;;;;;;;;;5037936;28;20429;-77
2023/08/06 07:08:37;;;;;;;2.93;2.73;;;;;;;;;;5037744;28;20439;-78
2023/08/06 07:11:04;;;;;;;2.70;2.60;;;;;;;;;;5042137;28;20430;-77
2023/08/06 07:13:30;;;;;;;2.93;2.73;;;;;;;;;;5043195;28;20457;-78
2023/08/06 07:15:56;;;;;;;2.50;2.50;;;;;;;;;;5025547;28;20438;-78
2023/08/06 07:18:22;;;;;;;2.00;1.90;;;;;;;;;;5038859;28;20492;-78
2023/08/06 07:20:52;;;;;;;2.33;2.33;;;;;;;;;;5038174;28;20423;-77
2023/08/06 07:23:19;;;;;;;3.07;2.33;;;;;;;;;;5036316;28;20469;-77
2023/08/06 07:29:06;;;;;;;1.70;1.60;;;;;;;;;;5040759;28;20388;-77
2023/08/06 07:31:32;;;;;;;2.20;2.20;;;;;;;;;;5043307;28;20421;-77
2023/08/06 07:33:58;;;;;;;2.50;2.50;;;;;;;;;;5020921;28;20825;-78
2023/08/06 07:36:24;;;;;;;2.23;2.23;;;;;;;;;;5035349;28;20445;-76
2023/08/06 07:38:55;;;;;;;2.20;1.70;;;;;;;;;;5040888;28;20430;-77
2023/08/06 07:41:21;;;;;;;1.70;1.60;;;;;;;;;;5036948;28;20755;-76
2023/08/06 07:43:47;;;;;;;2.30;2.20;;;;;;;;;;5040521;28;20858;-78
2023/08/06 07:46:13;;;;;;;2.33;2.17;;;;;;;;;;5022888;28;21167;-77
2023/08/06 07:48:39;;;;;;;1.47;1.47;;;;;;;;;;5044223;28;20422;-77
2023/08/06 07:51:05;;;;;;;2.50;2.40;;;;;;;;;;5020994;28;20445;-77
2023/08/06 07:53:32;;;;;;;2.07;2.03;;;;;;;;;;5037228;28;20450;-78
2023/08/06 07:56:02;;;;;;;1.87;1.87;;;;;;;;;;5038922;28;20449;-76
2023/08/06 08:05:03;;;;;;;1.33;1.33;;;;;;;;;;5039217;28;20467;-76
2023/08/06 08:07:31;;;;;;;1.63;1.63;;;;;;;;;;5024035;28;20437;-77
2023/08/06 08:09:58;;;;;;;2.30;2.10;;;;;;;;;;5035745;28;20446;-76
2023/08/06 08:12:24;;;;;;;2.10;2.00;;;;;;;;;;5035843;28;20437;-77
2023/08/06 08:14:50;;;;;;;2.03;1.93;;;;;;;;;;5013882;28;20968;-77
2023/08/06 08:17:16;;;;;;;1.73;1.60;;;;;;;;;;5026143;28;20544;-76
2023/08/06 08:19:42;;;;;;;2.70;2.60;;;;;;;;;;5037774;28;20956;-75
2023/08/06 08:22:08;;;;;;;1.77;1.67;;;;;;;;;;5039867;28;20462;-77
2023/08/06 08:24:34;;;;;;;1.83;1.77;;;;;;;;;;5040533;28;20422;-76
2023/08/06 08:27:00;;;;;;;2.03;1.93;;;;;;;;;;5035193;28;20909;-77
2023/08/06 08:29:26;;;;;;;1.97;1.80;;;;;;;;;;5040521;28;20422;-77
2023/08/06 08:31:52;;;;;;;2.20;1.97;;;;;;;;;;5037027;28;20457;-77
2023/08/06 08:34:18;;;;;;;2.20;2.10;;;;;;;;;;5041276;28;20457;-79
2023/08/06 08:36:46;;;;;;;2.30;2.20;;;;;;;;;;5037559;28;20860;-76
2023/08/06 08:39:13;;;;;;;1.73;1.70;;;;;;;;;;5025515;28;20422;-76
2023/08/06 08:41:39;;;;;;;2.23;2.00;;;;;;;;;;5032183;28;20445;-76
2023/08/06 08:44:10;;;;;;;1.87;1.87;;;;;;;;;;5039066;28;20563;-77
2023/08/06 08:46:40;;;;;;;2.20;2.10;;;;;;;;;;5035399;28;20434;-77
2023/08/06 08:49:06;;;;;;;2.00;1.90;;;;;;;;;;5037516;28;20448;-76
2023/08/06 08:51:34;;;;;;;1.73;1.63;;;;;;;;;;5040452;28;20486;-75
2023/08/06 08:54:00;;;;;;;2.20;2.20;;;;;;;;;;5022146;28;20437;-76
2023/08/06 08:56:26;;;;;;;2.90;2.60;;;;;;;;;;5023988;28;20471;-77
2023/08/06 08:58:55;;;;;;;1.40;1.40;;;;;;;;;;5039933;28;20983;-77
2023/08/06 09:01:22;;;;;;;1.50;1.50;;;;;;;;;;5041384;28;20521;-77
2023/08/06 09:03:48;;;;;;;1.83;1.83;;;;;;;;;;5036286;28;20915;-76
2023/08/06 09:06:16;;;;;;;1.63;1.53;;;;;;;;;;5035476;28;20626;-76
2023/08/06 09:08:52;;;;;;;1.63;1.63;;;;;;;;;;5035812;28;20450;-76
2023/08/06 09:11:20;;;;;;;2.27;2.27;;;;;;;;;;5032119;28;20430;-76
2023/08/06 09:13:46;;;;;;;1.70;1.70;;;;;;;;;;5039344;28;20524;-77
2023/08/06 09:16:12;;;;;;;1.80;1.80;;;;;;;;;;5042524;28;20437;-77
2023/08/06 09:18:40;;;;;;;2.17;2.17;;;;;;;;;;5041131;28;20546;-77
2023/08/06 09:21:06;;;;;;;1.90;1.90;;;;;;;;;;5042280;28;20532;-77
2023/08/06 09:23:33;;;;;;;1.23;1.23;;;;;;;;;;5037768;28;20548;-76
2023/08/06 09:25:59;;;;;;;1.80;1.80;;;;;;;;;;5036132;28;20494;-77
2023/08/06 09:28:37;;;;;;;1.60;1.60;;;;;;;;;;5039140;28;20532;-77
2023/08/06 09:31:03;;;;;;;1.93;1.93;;;;;;;;;;5027528;28;20523;-77
2023/08/06 09:33:29;;;;;;;3.30;3.20;;;;;;;;;;5036156;28;20487;-77
2023/08/06 09:35:55;;;;;;;2.63;2.53;;;;;;;;;;5024591;28;20845;-76
2023/08/06 09:38:21;;;;;;;3.50;3.50;;;;;;;;;;5042964;28;20426;-77
2023/08/06 09:40:48;;;;;;;5.57;5.37;;;;;;;;;;5024943;28;20972;-77
2023/08/06 09:43:14;;;;;;;7.00;6.53;;;;;;;;;;5045074;28;20831;-77
2023/08/06 09:45:40;;;;;;;6.90;6.40;;;;;;;;;;5042138;28;20459;-76
2023/08/06 09:48:06;;;;;;;7.03;6.63;;;;;;;;;;5045087;28;20578;-77
2023/08/06 09:50:36;;;;;;;7.90;7.40;;;;;;;;;;5034571;28;20437;-76
2023/08/06 09:53:02;;;;;;;8.37;7.77;;;;;;;;;;5019591;28;21043;-75
2023/08/06 09:55:28;;;;;;;7.33;7.03;;;;;;;;;;5035464;28;20442;-77
2023/08/06 09:57:54;;;;;;;8.70;8.00;;;;;;;;;;5038724;28;20859;-76
2023/08/06 10:00:20;;;;;;;8.83;8.30;;;;;;;;;;5041725;28;20782;-76
2023/08/06 10:02:48;;;;;;;9.40;8.80;;;;;;;;;;5044613;28;20553;-76
2023/08/06 10:05:14;;;;;;;8.40;8.00;;;;;;;;;;5043429;28;20434;-76
2023/08/06 10:07:43;;;;;;;8.37;7.87;;;;;;;;;;5036794;28;20517;-77
2023/08/06 10:10:09;;;;;;;9.50;8.70;;;;;;;;;;5043088;28;20503;-76
2023/08/06 10:12:36;;;;;;;8.77;8.17;;;;;;;;;;5033952;28;20480;-76
2023/08/06 10:15:05;;;;;;;9.53;8.93;;;;;;;;;;5042848;28;20410;-78
2023/08/06 10:17:32;;;;;;;9.10;8.60;;;;;;;;;;5040118;28;20422;-76
2023/08/06 10:19:59;;;;;;;9.43;8.80;;;;;;;;;;5032864;28;20524;-75
2023/08/06 10:22:27;;;;;;;9.63;8.90;;;;;;;;;;5040100;28;20495;-77
2023/08/06 10:24:57;;;;;;;8.57;7.93;;;;;;;;;;5046260;28;20423;-76
2023/08/06 10:27:23;;;;;;;10.10;9.30;;;;;;;;;;5042443;28;20449;-76
2023/08/06 10:29:50;;;;;;;10.23;9.30;;;;;;;;;;5027851;28;20437;-76
2023/08/06 10:32:18;;;;;;;8.00;7.67;;;;;;;;;;5045933;28;20446;-78
2023/08/06 10:35:02;;;;;;;9.07;8.57;;;;;;;;;;5019194;28;21224;-78
2023/08/06 10:37:35;;;;;;;10.10;9.03;;;;;;;;;;5040089;28;20438;-77
2023/08/06 10:40:02;;;;;;;8.83;8.20;;;;;;;;;;5031852;28;20410;-77
2023/08/06 10:42:28;;;;;;;8.63;8.07;;;;;;;;;;5040218;28;20998;-77
2023/08/06 10:45:14;;;;;;;8.83;8.33;;;;;;;;;;5040639;28;20509;-80
2023/08/06 10:47:40;;;;;;;7.77;7.47;;;;;;;;;;5037515;28;20446;-79
2023/08/06 10:50:08;;;;;;;9.00;7.90;;;;;;;;;;5040258;28;20446;-76
2023/08/06 10:52:35;;;;;;;11.20;10.23;;;;;;;;;;5034508;28;20524;-77
2023/08/06 10:55:01;;;;;;;11.63;10.93;;;;;;;;;;5023665;28;20786;-77
2023/08/06 10:57:27;;;;;;;13.20;12.30;;;;;;;;;;5037964;28;20437;-77
2023/08/06 10:59:54;;;;;;;11.20;10.30;;;;;;;;;;5029982;28;20428;-76
2023/08/06 11:02:20;;;;;;;11.60;10.80;;;;;;;;;;5040232;28;20472;-78
2023/08/06 11:04:46;;;;;;;12.83;11.77;;;;;;;;;;5026050;28;20414;-78
2023/08/06 11:07:13;;;;;;;10.60;9.90;;;;;;;;;;5038129;28;20975;-77
2023/08/06 11:09:40;;;;;;;11.30;10.30;;;;;;;;;;5034937;28;21308;-77
2023/08/06 11:12:12;;;;;;;10.43;9.80;;;;;;;;;;5040575;28;20441;-78
2023/08/06 11:14:38;;;;;;;10.70;10.20;;;;;;;;;;5038444;28;20505;-76
2023/08/06 11:17:06;;;;;;;4.67;4.47;;;;;;;;;;5044688;28;20491;-78
2023/08/06 11:19:32;;;;;;;6.13;4.70;;;;;;;;;;5031718;28;20512;-77
2023/08/06 11:21:59;;;;;;;2.73;2.63;;;;;;;;;;5023730;28;20920;-77
2023/08/06 11:24:25;;;;;;;2.40;2.40;;;;;;;;;;5024049;28;20422;-77
2023/08/06 11:26:51;;;;;;;2.57;2.47;;;;;;;;;;5036396;28;20426;-78
2023/08/06 11:29:17;;;;;;;2.33;2.33;;;;;;;;;;5039443;28;20447;-76
2023/08/06 11:31:46;;;;;;;2.50;2.50;;;;;;;;;;5038994;28;20833;-78
2023/08/06 11:34:21;;;;;;;2.10;2.10;;;;;;;;;;5042127;28;20481;-79
2023/08/06 11:36:50;;;;;;;2.10;2.00;;;;;;;;;;5041144;28;20482;-78
2023/08/06 11:39:16;;;;;;;1.43;1.43;;;;;;;;;;5032235;28;20415;-79
2023/08/06 11:41:44;;;;;;;1.87;1.67;;;;;;;;;;5036120;28;20433;-78
2023/08/06 11:44:16;;;;;;;1.97;1.97;;;;;;;;;;5022057;28;20612;-77
2023/08/06 11:46:55;;;;;;;1.57;1.57;;;;;;;;;;5036986;28;20941;-78
2023/08/06 11:49:37;;;;;;;2.13;2.03;;;;;;;;;;5024162;28;20450;-79
2023/08/06 11:52:23;;;;;;;1.77;1.77;;;;;;;;;;5041555;28;20425;-80
2023/08/06 11:55:13;;;;;;;1.33;1.33;;;;;;;;;;5038924;28;20487;-77
2023/08/06 11:57:40;;;;;;;1.60;1.60;;;;;;;;;;5034469;28;20409;-77
2023/08/06 12:00:08;;;;;;;2.13;2.03;;;;;;;;;;5025404;28;20447;-78
2023/08/06 12:02:35;;;;;;;2.23;2.23;;;;;;;;;;5044474;28;20476;-77
2023/08/06 12:05:05;;;;;;;2.80;2.80;;;;;;;;;;5041739;28;20448;-77
2023/08/06 12:07:32;;;;;;;2.50;2.50;;;;;;;;;;5037153;28;20429;-78
2023/08/06 12:09:58;;;;;;;2.17;2.17;;;;;;;;;;5036744;28;20445;-78
2023/08/06 12:12:24;;;;;;;3.27;2.40;;;;;;;;;;5042519;28;20448;-79
2023/08/06 12:14:50;;;;;;;2.10;2.10;;;;;;;;;;5040922;28;20425;-77
2023/08/06 12:17:17;;;;;;;1.43;1.43;;;;;;;;;;5039623;28;20430;-77
2023/08/06 12:19:45;;;;;;;1.70;1.70;;;;;;;;;;5040872;28;20534;-77
2023/08/06 12:22:11;;;;;;;1.50;1.50;;;;;;;;;;5042867;28;20465;-77
2023/08/06 12:24:39;;;;;;;1.17;1.17;;;;;;;;;;5040507;28;20589;-79
2023/08/06 12:27:05;;;;;;;1.30;1.30;;;;;;;;;;5043363;28;20513;-77
2023/08/06 12:29:31;;;;;;;1.87;1.87;;;;;;;;;;5033615;28;20457;-79
2023/08/06 12:31:57;;;;;;;1.70;1.60;;;;;;;;;;5042153;28;20480;-77
2023/08/06 12:34:23;;;;;;;1.40;1.40;;;;;;;;;;5037999;28;20464;-78
2023/08/06 12:36:49;;;;;;;2.00;2.00;;;;;;;;;;5042789;28;20471;-78
2023/08/06 12:39:15;;;;;;;1.40;1.30;;;;;;;;;;5040547;28;20444;-78
2023/08/06 12:41:43;;;;;;;1.90;1.80;;;;;;;;;;5042669;28;20442;-78
2023/08/06 12:44:09;;;;;;;1.40;1.40;;;;;;;;;;5039495;28;20549;-77
2023/08/06 12:46:35;;;;;;;4.07;1.83;;;;;;;;;;5032848;28;20533;-76
2023/08/06 12:49:01;;;;;;;1.23;1.23;;;;;;;;;;5031991;28;21616;-78
2023/08/06 12:51:27;;;;;;;1.70;1.70;;;;;;;;;;5040486;28;20480;-79
2023/08/06 12:53:53;;;;;;;1.83;1.83;;;;;;;;;;5038234;28;20444;-78
2023/08/06 12:56:19;;;;;;;1.23;1.23;;;;;;;;;;5038956;28;20524;-78
2023/08/06 12:58:45;;;;;;;1.50;1.50;;;;;;;;;;5042245;28;20529;-78
2023/08/06 13:01:11;;;;;;;1.30;1.30;;;;;;;;;;5044171;28;21004;-78
2023/08/06 13:03:37;;;;;;;1.50;1.50;;;;;;;;;;5040817;28;20472;-79
2023/08/06 13:06:03;;;;;;;1.40;1.40;;;;;;;;;;5020274;28;20453;-79
2023/08/06 13:08:29;;;;;;;1.60;1.60;;;;;;;;;;5024364;28;20524;-77
2023/08/06 13:10:55;;;;;;;1.30;1.30;;;;;;;;;;5038061;28;20884;-78
2023/08/06 13:13:21;;;;;;;1.80;1.80;;;;;;;;;;5044087;28;20480;-78
2023/08/06 13:15:47;;;;;;;1.57;1.57;;;;;;;;;;5043820;28;20494;-77
2023/08/06 13:18:13;;;;;;;2.00;2.00;;;;;;;;;;5037649;28;20469;-78
2023/08/06 13:20:42;;;;;;;2.27;2.27;;;;;;;;;;5041270;28;20420;-79
2023/08/06 13:23:08;;;;;;;2.67;2.57;;;;;;;;;;5040870;28;20477;-80
2023/08/06 13:25:36;;;;;;;29.77;21.03;;;;;;;;;;5045016;28;20806;-75
2023/08/06 13:28:03;;;;;;;3.90;2.10;;;;;;;;;;5040120;28;20452;-79
2023/08/06 13:30:29;;;;;;;2.00;2.00;;;;;;;;;;5035449;28;20466;-77
2023/08/06 13:32:56;;;;;;;2.90;2.70;;;;;;;;;;5038208;28;20544;-78
2023/08/06 13:35:23;;;;;;;2.57;2.40;;;;;;;;;;5032389;28;20417;-78
2023/08/06 13:37:49;;;;;;;3.00;2.90;;;;;;;;;;5020003;28;21216;-77
2023/08/06 13:40:15;;;;;;;2.93;2.87;;;;;;;;;;5041177;28;20471;-77
2023/08/06 13:42:41;;;;;;;3.70;3.60;;;;;;;;;;5021436;28;20600;-77
2023/08/06 13:45:08;;;;;;;4.03;3.93;;;;;;;;;;5035104;28;20435;-78
2023/08/06 13:47:36;;;;;;;3.57;3.50;;;;;;;;;;5017953;28;20430;-78
2023/08/06 13:50:03;;;;;;;4.23;3.93;;;;;;;;;;5034936;28;20434;-78
2023/08/06 13:52:29;;;;;;;6.43;3.20;;;;;;;;;;5043366;28;20433;-78
2023/08/06 13:54:55;;;;;;;4.03;3.80;;;;;;;;;;5042566;28;20445;-77
2023/08/06 13:57:21;;;;;;;3.80;3.70;;;;;;;;;;5025188;28;20434;-79
2023/08/06 13:59:47;;;;;;;3.63;3.47;;;;;;;;;;5036921;28;20453;-78
2023/08/06 14:02:13;;;;;;;3.20;3.10;;;;;;;;;;5024509;28;20447;-76
2023/08/06 14:04:40;;;;;;;3.00;3.00;;;;;;;;;;5039621;28;20903;-78
2023/08/06 14:07:05;;;;;;;3.10;3.10;;;;;;;;;;5042806;28;20434;-78
2023/08/06 14:09:32;;;;;;;3.27;3.10;;;;;;;;;;5036040;28;20472;-76
2023/08/06 14:11:57;;;;;;;3.80;3.80;;;;;;;;;;5042632;28;20441;-78
2023/08/06 14:14:26;;;;;;;3.40;3.40;;;;;;;;;;5037746;28;20436;-78
2023/08/06 14:16:54;;;;;;;3.20;3.20;;;;;;;;;;5040504;28;20461;-78
2023/08/06 14:19:21;;;;;;;2.80;2.80;;;;;;;;;;5037941;28;20476;-77
2023/08/06 14:21:47;;;;;;;3.33;3.33;;;;;;;;;;5037387;28;20906;-77
2023/08/06 14:24:13;;;;;;;3.67;3.57;;;;;;;;;;5042023;28;20453;-79
2023/08/06 14:26:39;;;;;;;4.60;4.27;;;;;;;;;;5038087;28;20491;-80
2023/08/06 14:29:05;;;;;;;5.37;5.17;;;;;;;;;;5043428;28;20441;-79
2023/08/06 14:31:31;;;;;;;4.67;4.47;;;;;;;;;;5040092;28;20438;-79
2023/08/06 14:33:57;;;;;;;3.40;3.33;;;;;;;;;;5039251;28;20442;-78
2023/08/06 14:36:23;;;;;;;3.77;3.60;;;;;;;;;;5024536;28;20442;-78
2023/08/06 14:38:49;;;;;;;2.93;2.83;;;;;;;;;;5041496;28;20434;-78
2023/08/06 14:41:15;;;;;;;3.23;3.20;;;;;;;;;;5022014;28;20429;-77
2023/08/06 14:43:41;;;;;;;2.63;2.63;;;;;;;;;;5039661;28;20461;-76
2023/08/06 14:46:07;;;;;;;3.00;2.90;;;;;;;;;;5026032;28;20912;-78
2023/08/06 14:48:33;;;;;;;2.77;2.77;;;;;;;;;;5015775;28;20441;-76
2023/08/06 14:50:59;;;;;;;2.60;2.60;;;;;;;;;;5042514;28;20426;-77
2023/08/06 14:53:25;;;;;;;3.03;3.03;;;;;;;;;;5038361;28;20446;-78
2023/08/06 14:55:51;;;;;;;2.20;2.10;;;;;;;;;;5039514;28;20994;-78
2023/08/06 14:58:17;;;;;;;2.17;2.17;;;;;;;;;;5038790;28;20440;-78
2023/08/06 15:00:43;;;;;;;1.93;1.93;;;;;;;;;;5041370;28;20455;-78
2023/08/06 15:03:09;;;;;;;2.40;2.40;;;;;;;;;;5021428;28;20453;-78
2023/08/06 15:05:35;;;;;;;2.00;2.00;;;;;;;;;;5037551;28;20882;-77
2023/08/06 15:08:01;;;;;;;1.83;1.83;;;;;;;;;;5034664;28;20544;-74
2023/08/06 15:10:27;;;;;;;2.57;2.10;;;;;;;;;;5037031;28;20483;-77
2023/08/06 15:12:53;;;;;;;2.00;2.00;;;;;;;;;;5039826;28;20790;-76
2023/08/06 15:15:19;;;;;;;1.83;1.83;;;;;;;;;;5043070;28;20433;-78
2023/08/06 15:17:45;;;;;;;2.97;2.87;;;;;;;;;;5037438;28;20437;-77
2023/08/06 15:20:11;;;;;;;1.73;1.73;;;;;;;;;;5038683;28;20428;-78
2023/08/06 15:22:37;;;;;;;2.10;2.10;;;;;;;;;;5039810;28;20560;-77